sensor_id;sensor_type;location;lat;lon;timestamp;P1;durP1;ratioP1;P2;durP2;ratioP2
41693;SDS011;27377;50.666;9.150;2022-12-17T00:01:33;23.43;;;12.63;;
41693;SDS011;27377;50.666;9.150;2022-12-17T00:04:17;32.83;;;15.77;;
41693;SDS011;27377;50.666;9.150;2022-12-17T00:07:02;45.88;;;20.30;;
41693;SDS011;27377;50.666;9.150;2022-12-17T00:09:46;45.20;;;20.58;;
41693;SDS011;27377;50.666;9.150;2022-12-17T00:12:30;48.17;;;21.03;;
41693;SDS011;27377;50.666;9.150;2022-12-17T00:15:15;46.20;;;20.93;;
41693;SDS011;27377;50.666;9.150;2022-12-17T00:18:06;43.53;;;20.60;;
41693;SDS011;27377;50.666;9.150;2022-12-17T00:20:54;45.75;;;19.85;;
41693;SDS011;27377;50.666;9.150;2022-12-17T00:23:39;43.38;;;20.15;;
41693;SDS011;27377;50.666;9.150;2022-12-17T00:26:24;46.17;;;21.63;;
41693;SDS011;27377;50.666;9.150;2022-12-17T00:29:08;49.40;;;23.13;;
41693;SDS011;27377;50.666;9.150;2022-12-17T00:31:52;54.90;;;24.80;;
41693;SDS011;27377;50.666;9.150;2022-12-17T00:34:37;56.63;;;26.52;;
41693;SDS011;27377;50.666;9.150;2022-12-17T00:37:21;39.58;;;19.40;;
41693;SDS011;27377;50.666;9.150;2022-12-17T00:40:06;35.65;;;17.85;;
41693;SDS011;27377;50.666;9.150;2022-12-17T00:43:03;35.47;;;17.02;;
41693;SDS011;27377;50.666;9.150;2022-12-17T00:45:52;31.38;;;15.90;;
41693;SDS011;27377;50.666;9.150;2022-12-17T00:48:37;37.53;;;16.83;;
41693;SDS011;27377;50.666;9.150;2022-12-17T00:51:21;41.65;;;18.77;;
41693;SDS011;27377;50.666;9.150;2022-12-17T00:54:06;39.28;;;17.50;;
41693;SDS011;27377;50.666;9.150;2022-12-17T00:56:50;29.08;;;14.57;;
41693;SDS011;27377;50.666;9.150;2022-12-17T00:59:35;28.42;;;13.50;;
41693;SDS011;27377;50.666;9.150;2022-12-17T01:02:19;23.60;;;11.27;;
41693;SDS011;27377;50.666;9.150;2022-12-17T01:05:04;18.63;;;10.50;;
41693;SDS011;27377;50.666;9.150;2022-12-17T01:07:49;18.67;;;9.80;;
41693;SDS011;27377;50.666;9.150;2022-12-17T01:10:33;16.65;;;9.05;;
41693;SDS011;27377;50.666;9.150;2022-12-17T01:13:18;19.38;;;10.50;;
41693;SDS011;27377;50.666;9.150;2022-12-17T01:16:05;15.80;;;9.03;;
41693;SDS011;27377;50.666;9.150;2022-12-17T01:18:52;18.10;;;10.53;;
41693;SDS011;27377;50.666;9.150;2022-12-17T01:21:36;29.60;;;16.35;;
41693;SDS011;27377;50.666;9.150;2022-12-17T01:24:21;23.53;;;13.50;;
41693;SDS011;27377;50.666;9.150;2022-12-17T01:27:06;23.90;;;12.57;;
41693;SDS011;27377;50.666;9.150;2022-12-17T01:29:50;20.48;;;9.98;;
41693;SDS011;27377;50.666;9.150;2022-12-17T01:32:35;26.15;;;11.73;;
41693;SDS011;27377;50.666;9.150;2022-12-17T01:35:19;21.60;;;11.03;;
41693;SDS011;27377;50.666;9.150;2022-12-17T01:38:09;22.88;;;11.18;;
41693;SDS011;27377;50.666;9.150;2022-12-17T01:40:54;25.95;;;11.70;;
41693;SDS011;27377;50.666;9.150;2022-12-17T01:43:39;20.20;;;9.48;;
41693;SDS011;27377;50.666;9.150;2022-12-17T01:46:24;17.90;;;9.15;;
41693;SDS011;27377;50.666;9.150;2022-12-17T01:49:10;15.85;;;8.55;;
41693;SDS011;27377;50.666;9.150;2022-12-17T01:51:55;14.00;;;7.15;;
41693;SDS011;27377;50.666;9.150;2022-12-17T01:54:40;11.23;;;6.50;;
41693;SDS011;27377;50.666;9.150;2022-12-17T01:57:24;9.95;;;5.63;;
41693;SDS011;27377;50.666;9.150;2022-12-17T02:00:10;11.98;;;6.18;;
41693;SDS011;27377;50.666;9.150;2022-12-17T02:02:57;10.90;;;6.17;;
41693;SDS011;27377;50.666;9.150;2022-12-17T02:05:44;11.32;;;6.18;;
41693;SDS011;27377;50.666;9.150;2022-12-17T02:11:48;12.50;;;6.30;;
41693;SDS011;27377;50.666;9.150;2022-12-17T02:14:39;8.98;;;5.63;;
41693;SDS011;27377;50.666;9.150;2022-12-17T02:17:29;10.60;;;5.85;;
41693;SDS011;27377;50.666;9.150;2022-12-17T02:20:28;18.08;;;8.90;;
41693;SDS011;27377;50.666;9.150;2022-12-17T02:26:40;18.95;;;8.32;;
41693;SDS011;27377;50.666;9.150;2022-12-17T02:29:32;12.43;;;6.22;;
41693;SDS011;27377;50.666;9.150;2022-12-17T02:32:20;9.50;;;5.60;;
41693;SDS011;27377;50.666;9.150;2022-12-17T02:35:09;9.80;;;5.22;;
41693;SDS011;27377;50.666;9.150;2022-12-17T02:37:57;8.63;;;5.25;;
41693;SDS011;27377;50.666;9.150;2022-12-17T02:40:41;8.83;;;5.40;;
41693;SDS011;27377;50.666;9.150;2022-12-17T02:43:29;8.77;;;5.28;;
41693;SDS011;27377;50.666;9.150;2022-12-17T02:46:15;8.77;;;5.03;;
41693;SDS011;27377;50.666;9.150;2022-12-17T02:49:00;8.82;;;5.38;;
41693;SDS011;27377;50.666;9.150;2022-12-17T02:51:44;9.93;;;5.73;;
41693;SDS011;27377;50.666;9.150;2022-12-17T02:54:29;9.57;;;5.30;;
41693;SDS011;27377;50.666;9.150;2022-12-17T02:57:14;8.15;;;5.35;;
41693;SDS011;27377;50.666;9.150;2022-12-17T02:59:59;7.85;;;5.22;;
41693;SDS011;27377;50.666;9.150;2022-12-17T03:02:43;9.45;;;5.55;;
41693;SDS011;27377;50.666;9.150;2022-12-17T03:05:27;11.05;;;5.43;;
41693;SDS011;27377;50.666;9.150;2022-12-17T03:08:12;10.75;;;5.80;;
41693;SDS011;27377;50.666;9.150;2022-12-17T03:10:56;11.15;;;5.55;;
41693;SDS011;27377;50.666;9.150;2022-12-17T03:13:40;9.33;;;5.33;;
41693;SDS011;27377;50.666;9.150;2022-12-17T03:16:25;11.43;;;5.87;;
41693;SDS011;27377;50.666;9.150;2022-12-17T03:19:09;9.20;;;5.47;;
41693;SDS011;27377;50.666;9.150;2022-12-17T03:21:53;10.77;;;5.53;;
41693;SDS011;27377;50.666;9.150;2022-12-17T03:24:37;9.48;;;5.53;;
41693;SDS011;27377;50.666;9.150;2022-12-17T03:27:22;10.45;;;5.28;;
41693;SDS011;27377;50.666;9.150;2022-12-17T03:30:06;11.50;;;5.68;;
41693;SDS011;27377;50.666;9.150;2022-12-17T03:32:51;8.70;;;5.57;;
41693;SDS011;27377;50.666;9.150;2022-12-17T03:35:36;11.30;;;6.30;;
41693;SDS011;27377;50.666;9.150;2022-12-17T03:38:37;10.10;;;6.13;;
41693;SDS011;27377;50.666;9.150;2022-12-17T03:41:21;10.45;;;6.10;;
41693;SDS011;27377;50.666;9.150;2022-12-17T03:44:05;9.98;;;6.03;;
41693;SDS011;27377;50.666;9.150;2022-12-17T03:46:50;11.10;;;6.47;;
41693;SDS011;27377;50.666;9.150;2022-12-17T03:49:34;10.52;;;6.35;;
41693;SDS011;27377;50.666;9.150;2022-12-17T03:52:18;11.05;;;6.07;;
41693;SDS011;27377;50.666;9.150;2022-12-17T03:55:03;10.53;;;6.10;;
41693;SDS011;27377;50.666;9.150;2022-12-17T03:57:47;10.27;;;6.20;;
41693;SDS011;27377;50.666;9.150;2022-12-17T04:00:31;9.32;;;5.97;;
41693;SDS011;27377;50.666;9.150;2022-12-17T04:03:15;10.30;;;6.20;;
41693;SDS011;27377;50.666;9.150;2022-12-17T04:06:00;9.80;;;5.97;;
41693;SDS011;27377;50.666;9.150;2022-12-17T04:08:44;9.55;;;5.80;;
41693;SDS011;27377;50.666;9.150;2022-12-17T04:11:28;10.38;;;6.10;;
41693;SDS011;27377;50.666;9.150;2022-12-17T04:14:13;10.75;;;5.70;;
41693;SDS011;27377;50.666;9.150;2022-12-17T04:16:57;9.10;;;5.53;;
41693;SDS011;27377;50.666;9.150;2022-12-17T04:19:41;10.27;;;5.67;;
41693;SDS011;27377;50.666;9.150;2022-12-17T04:22:26;12.27;;;6.50;;
41693;SDS011;27377;50.666;9.150;2022-12-17T04:25:10;10.32;;;5.75;;
41693;SDS011;27377;50.666;9.150;2022-12-17T04:27:54;11.25;;;5.88;;
41693;SDS011;27377;50.666;9.150;2022-12-17T04:30:38;10.32;;;5.75;;
41693;SDS011;27377;50.666;9.150;2022-12-17T04:33:23;9.90;;;5.47;;
41693;SDS011;27377;50.666;9.150;2022-12-17T04:36:07;9.23;;;5.75;;
41693;SDS011;27377;50.666;9.150;2022-12-17T04:38:52;8.93;;;5.90;;
41693;SDS011;27377;50.666;9.150;2022-12-17T04:41:36;9.75;;;5.82;;
41693;SDS011;27377;50.666;9.150;2022-12-17T04:44:21;10.18;;;6.15;;
41693;SDS011;27377;50.666;9.150;2022-12-17T04:47:05;10.55;;;6.53;;
41693;SDS011;27377;50.666;9.150;2022-12-17T04:49:49;10.45;;;5.90;;
41693;SDS011;27377;50.666;9.150;2022-12-17T04:52:33;10.98;;;6.10;;
41693;SDS011;27377;50.666;9.150;2022-12-17T04:55:18;11.02;;;6.03;;
41693;SDS011;27377;50.666;9.150;2022-12-17T04:58:05;9.57;;;5.73;;
41693;SDS011;27377;50.666;9.150;2022-12-17T05:00:50;11.25;;;6.40;;
41693;SDS011;27377;50.666;9.150;2022-12-17T05:03:34;10.27;;;5.72;;
41693;SDS011;27377;50.666;9.150;2022-12-17T05:06:19;9.85;;;5.85;;
41693;SDS011;27377;50.666;9.150;2022-12-17T05:09:03;10.50;;;5.82;;
41693;SDS011;27377;50.666;9.150;2022-12-17T05:11:48;12.88;;;6.43;;
41693;SDS011;27377;50.666;9.150;2022-12-17T05:14:35;11.05;;;6.00;;
41693;SDS011;27377;50.666;9.150;2022-12-17T05:17:20;10.40;;;6.15;;
41693;SDS011;27377;50.666;9.150;2022-12-17T05:20:04;9.38;;;6.05;;
41693;SDS011;27377;50.666;9.150;2022-12-17T05:22:48;9.75;;;5.60;;
41693;SDS011;27377;50.666;9.150;2022-12-17T05:25:33;10.02;;;5.65;;
41693;SDS011;27377;50.666;9.150;2022-12-17T05:28:17;9.45;;;5.95;;
41693;SDS011;27377;50.666;9.150;2022-12-17T05:31:01;10.50;;;5.70;;
41693;SDS011;27377;50.666;9.150;2022-12-17T05:33:45;11.02;;;5.80;;
41693;SDS011;27377;50.666;9.150;2022-12-17T05:36:30;10.05;;;5.53;;
41693;SDS011;27377;50.666;9.150;2022-12-17T05:39:14;9.77;;;5.67;;
41693;SDS011;27377;50.666;9.150;2022-12-17T05:41:58;10.68;;;5.80;;
41693;SDS011;27377;50.666;9.150;2022-12-17T05:44:42;10.98;;;5.40;;
41693;SDS011;27377;50.666;9.150;2022-12-17T05:47:27;8.90;;;5.63;;
41693;SDS011;27377;50.666;9.150;2022-12-17T05:50:25;9.23;;;5.63;;
41693;SDS011;27377;50.666;9.150;2022-12-17T05:53:09;8.93;;;5.40;;
41693;SDS011;27377;50.666;9.150;2022-12-17T05:55:53;9.30;;;5.72;;
41693;SDS011;27377;50.666;9.150;2022-12-17T05:58:37;8.75;;;5.50;;
41693;SDS011;27377;50.666;9.150;2022-12-17T06:01:22;9.82;;;6.10;;
41693;SDS011;27377;50.666;9.150;2022-12-17T06:04:07;10.80;;;6.10;;
41693;SDS011;27377;50.666;9.150;2022-12-17T06:06:52;9.80;;;5.70;;
41693;SDS011;27377;50.666;9.150;2022-12-17T06:09:46;10.73;;;5.60;;
41693;SDS011;27377;50.666;9.150;2022-12-17T06:12:30;24.85;;;13.70;;
41693;SDS011;27377;50.666;9.150;2022-12-17T06:15:15;15.02;;;7.78;;
41693;SDS011;27377;50.666;9.150;2022-12-17T06:17:59;16.33;;;8.63;;
41693;SDS011;27377;50.666;9.150;2022-12-17T06:20:44;11.37;;;6.83;;
41693;SDS011;27377;50.666;9.150;2022-12-17T06:23:28;12.70;;;7.13;;
41693;SDS011;27377;50.666;9.150;2022-12-17T06:26:12;11.73;;;6.53;;
41693;SDS011;27377;50.666;9.150;2022-12-17T06:28:57;13.35;;;7.43;;
41693;SDS011;27377;50.666;9.150;2022-12-17T06:31:41;14.85;;;7.97;;
41693;SDS011;27377;50.666;9.150;2022-12-17T06:34:25;15.18;;;8.18;;
41693;SDS011;27377;50.666;9.150;2022-12-17T06:37:10;14.07;;;8.00;;
41693;SDS011;27377;50.666;9.150;2022-12-17T06:39:56;12.48;;;6.60;;
41693;SDS011;27377;50.666;9.150;2022-12-17T06:42:40;11.63;;;6.30;;
41693;SDS011;27377;50.666;9.150;2022-12-17T06:45:35;11.85;;;7.35;;
41693;SDS011;27377;50.666;9.150;2022-12-17T06:48:19;12.90;;;7.78;;
41693;SDS011;27377;50.666;9.150;2022-12-17T06:51:03;12.05;;;7.30;;
41693;SDS011;27377;50.666;9.150;2022-12-17T06:53:48;21.60;;;13.35;;
41693;SDS011;27377;50.666;9.150;2022-12-17T06:56:32;108.07;;;69.60;;
41693;SDS011;27377;50.666;9.150;2022-12-17T06:59:16;29.92;;;19.08;;
41693;SDS011;27377;50.666;9.150;2022-12-17T07:02:00;14.48;;;8.52;;
41693;SDS011;27377;50.666;9.150;2022-12-17T07:04:45;14.35;;;8.00;;
41693;SDS011;27377;50.666;9.150;2022-12-17T07:07:29;12.73;;;7.43;;
41693;SDS011;27377;50.666;9.150;2022-12-17T07:10:13;13.35;;;8.63;;
41693;SDS011;27377;50.666;9.150;2022-12-17T07:13:07;12.13;;;7.30;;
41693;SDS011;27377;50.666;9.150;2022-12-17T07:15:55;13.67;;;7.63;;
41693;SDS011;27377;50.666;9.150;2022-12-17T07:18:39;13.30;;;8.63;;
41693;SDS011;27377;50.666;9.150;2022-12-17T07:21:23;13.43;;;8.25;;
41693;SDS011;27377;50.666;9.150;2022-12-17T07:24:08;19.15;;;11.05;;
41693;SDS011;27377;50.666;9.150;2022-12-17T07:26:52;23.60;;;12.50;;
41693;SDS011;27377;50.666;9.150;2022-12-17T07:29:36;20.10;;;11.48;;
41693;SDS011;27377;50.666;9.150;2022-12-17T07:32:22;15.07;;;9.03;;
41693;SDS011;27377;50.666;9.150;2022-12-17T07:35:06;11.90;;;7.93;;
41693;SDS011;27377;50.666;9.150;2022-12-17T07:37:58;12.23;;;6.55;;
41693;SDS011;27377;50.666;9.150;2022-12-17T07:40:43;12.65;;;6.32;;
41693;SDS011;27377;50.666;9.150;2022-12-17T07:43:27;11.52;;;6.68;;
41693;SDS011;27377;50.666;9.150;2022-12-17T07:46:12;10.95;;;5.85;;
41693;SDS011;27377;50.666;9.150;2022-12-17T07:48:56;8.77;;;5.63;;
41693;SDS011;27377;50.666;9.150;2022-12-17T07:51:40;10.60;;;5.82;;
41693;SDS011;27377;50.666;9.150;2022-12-17T07:54:25;10.07;;;5.90;;
41693;SDS011;27377;50.666;9.150;2022-12-17T07:57:11;10.00;;;6.00;;
41693;SDS011;27377;50.666;9.150;2022-12-17T07:59:55;10.70;;;5.70;;
41693;SDS011;27377;50.666;9.150;2022-12-17T08:02:40;11.18;;;6.25;;
41693;SDS011;27377;50.666;9.150;2022-12-17T08:05:24;12.88;;;7.80;;
41693;SDS011;27377;50.666;9.150;2022-12-17T08:08:08;14.27;;;8.55;;
41693;SDS011;27377;50.666;9.150;2022-12-17T08:10:54;15.43;;;9.15;;
41693;SDS011;27377;50.666;9.150;2022-12-17T08:13:38;15.20;;;9.35;;
41693;SDS011;27377;50.666;9.150;2022-12-17T08:16:22;13.45;;;8.15;;
41693;SDS011;27377;50.666;9.150;2022-12-17T08:19:07;14.20;;;8.48;;
41693;SDS011;27377;50.666;9.150;2022-12-17T08:21:51;14.57;;;8.35;;
41693;SDS011;27377;50.666;9.150;2022-12-17T08:24:36;13.48;;;7.90;;
41693;SDS011;27377;50.666;9.150;2022-12-17T08:27:20;14.25;;;8.25;;
41693;SDS011;27377;50.666;9.150;2022-12-17T08:30:04;11.60;;;7.40;;
41693;SDS011;27377;50.666;9.150;2022-12-17T08:32:49;13.23;;;7.40;;
41693;SDS011;27377;50.666;9.150;2022-12-17T08:35:54;13.10;;;7.60;;
41693;SDS011;27377;50.666;9.150;2022-12-17T08:38:40;13.55;;;7.22;;
41693;SDS011;27377;50.666;9.150;2022-12-17T08:41:25;12.00;;;7.10;;
41693;SDS011;27377;50.666;9.150;2022-12-17T08:44:12;17.40;;;8.30;;
41693;SDS011;27377;50.666;9.150;2022-12-17T08:46:56;17.13;;;7.20;;
41693;SDS011;27377;50.666;9.150;2022-12-17T08:49:41;15.88;;;7.35;;
41693;SDS011;27377;50.666;9.150;2022-12-17T08:52:25;13.57;;;7.63;;
41693;SDS011;27377;50.666;9.150;2022-12-17T08:55:09;16.95;;;10.70;;
41693;SDS011;27377;50.666;9.150;2022-12-17T08:57:54;44.35;;;21.65;;
41693;SDS011;27377;50.666;9.150;2022-12-17T09:00:39;56.90;;;28.55;;
41693;SDS011;27377;50.666;9.150;2022-12-17T09:03:24;37.30;;;17.52;;
41693;SDS011;27377;50.666;9.150;2022-12-17T09:06:08;27.08;;;14.90;;
41693;SDS011;27377;50.666;9.150;2022-12-17T09:08:53;23.70;;;12.63;;
41693;SDS011;27377;50.666;9.150;2022-12-17T09:11:38;27.63;;;12.97;;
41693;SDS011;27377;50.666;9.150;2022-12-17T09:14:27;21.52;;;11.25;;
41693;SDS011;27377;50.666;9.150;2022-12-17T09:17:13;25.25;;;11.45;;
41693;SDS011;27377;50.666;9.150;2022-12-17T09:19:57;21.45;;;10.98;;
41693;SDS011;27377;50.666;9.150;2022-12-17T09:22:41;21.77;;;10.33;;
41693;SDS011;27377;50.666;9.150;2022-12-17T09:25:26;20.52;;;10.30;;
41693;SDS011;27377;50.666;9.150;2022-12-17T09:28:10;19.35;;;9.30;;
41693;SDS011;27377;50.666;9.150;2022-12-17T09:31:08;17.77;;;9.85;;
41693;SDS011;27377;50.666;9.150;2022-12-17T09:33:52;17.95;;;9.68;;
41693;SDS011;27377;50.666;9.150;2022-12-17T09:36:37;17.27;;;9.32;;
41693;SDS011;27377;50.666;9.150;2022-12-17T09:39:21;15.68;;;9.13;;
41693;SDS011;27377;50.666;9.150;2022-12-17T09:42:19;19.27;;;10.27;;
41693;SDS011;27377;50.666;9.150;2022-12-17T09:45:21;16.95;;;9.95;;
41693;SDS011;27377;50.666;9.150;2022-12-17T09:51:25;17.08;;;10.07;;
41693;SDS011;27377;50.666;9.150;2022-12-17T09:54:13;16.15;;;9.57;;
41693;SDS011;27377;50.666;9.150;2022-12-17T09:57:13;16.93;;;9.87;;
41693;SDS011;27377;50.666;9.150;2022-12-17T10:00:05;17.40;;;9.75;;
41693;SDS011;27377;50.666;9.150;2022-12-17T10:02:56;17.73;;;10.40;;
41693;SDS011;27377;50.666;9.150;2022-12-17T10:05:40;16.20;;;9.70;;
41693;SDS011;27377;50.666;9.150;2022-12-17T10:08:26;16.55;;;9.93;;
41693;SDS011;27377;50.666;9.150;2022-12-17T10:11:20;17.25;;;10.48;;
41693;SDS011;27377;50.666;9.150;2022-12-17T10:14:10;17.35;;;10.50;;
41693;SDS011;27377;50.666;9.150;2022-12-17T10:16:59;16.80;;;10.10;;
41693;SDS011;27377;50.666;9.150;2022-12-17T10:19:43;17.65;;;10.20;;
41693;SDS011;27377;50.666;9.150;2022-12-17T10:22:31;16.65;;;10.05;;
41693;SDS011;27377;50.666;9.150;2022-12-17T10:25:25;16.40;;;9.88;;
41693;SDS011;27377;50.666;9.150;2022-12-17T10:28:14;17.10;;;10.27;;
41693;SDS011;27377;50.666;9.150;2022-12-17T10:31:14;18.50;;;11.18;;
41693;SDS011;27377;50.666;9.150;2022-12-17T10:34:00;18.17;;;10.75;;
41693;SDS011;27377;50.666;9.150;2022-12-17T10:36:49;17.52;;;11.23;;
41693;SDS011;27377;50.666;9.150;2022-12-17T10:39:35;17.83;;;11.45;;
41693;SDS011;27377;50.666;9.150;2022-12-17T10:45:17;15.88;;;10.27;;
41693;SDS011;27377;50.666;9.150;2022-12-17T10:48:20;15.80;;;9.95;;
41693;SDS011;27377;50.666;9.150;2022-12-17T10:51:25;14.02;;;9.35;;
41693;SDS011;27377;50.666;9.150;2022-12-17T10:54:19;13.85;;;8.95;;
41693;SDS011;27377;50.666;9.150;2022-12-17T10:57:23;13.20;;;8.32;;
41693;SDS011;27377;50.666;9.150;2022-12-17T11:03:01;13.05;;;8.50;;
41693;SDS011;27377;50.666;9.150;2022-12-17T11:05:47;12.90;;;8.52;;
41693;SDS011;27377;50.666;9.150;2022-12-17T11:08:35;13.70;;;8.75;;
41693;SDS011;27377;50.666;9.150;2022-12-17T11:11:20;14.00;;;8.98;;
41693;SDS011;27377;50.666;9.150;2022-12-17T11:14:07;12.23;;;8.25;;
41693;SDS011;27377;50.666;9.150;2022-12-17T11:17:12;13.30;;;8.43;;
41693;SDS011;27377;50.666;9.150;2022-12-17T11:20:04;12.68;;;8.10;;
41693;SDS011;27377;50.666;9.150;2022-12-17T11:22:53;12.70;;;8.15;;
41693;SDS011;27377;50.666;9.150;2022-12-17T11:25:41;12.52;;;8.27;;
41693;SDS011;27377;50.666;9.150;2022-12-17T11:28:48;13.07;;;8.30;;
41693;SDS011;27377;50.666;9.150;2022-12-17T11:34:55;12.32;;;8.20;;
41693;SDS011;27377;50.666;9.150;2022-12-17T11:38:29;12.63;;;7.78;;
41693;SDS011;27377;50.666;9.150;2022-12-17T11:50:12;15.00;;;9.47;;
41693;SDS011;27377;50.666;9.150;2022-12-17T11:56:22;15.93;;;9.85;;
41693;SDS011;27377;50.666;9.150;2022-12-17T11:59:17;14.33;;;9.37;;
41693;SDS011;27377;50.666;9.150;2022-12-17T12:14:18;14.90;;;9.65;;
41693;SDS011;27377;50.666;9.150;2022-12-17T12:17:21;16.58;;;10.10;;
41693;SDS011;27377;50.666;9.150;2022-12-17T12:20:15;15.38;;;9.60;;
41693;SDS011;27377;50.666;9.150;2022-12-17T12:23:21;15.85;;;9.77;;
41693;SDS011;27377;50.666;9.150;2022-12-17T12:27:39;15.45;;;9.65;;
41693;SDS011;27377;50.666;9.150;2022-12-17T12:30:23;15.57;;;9.57;;
41693;SDS011;27377;50.666;9.150;2022-12-17T12:33:22;14.77;;;9.48;;
41693;SDS011;27377;50.666;9.150;2022-12-17T12:36:14;15.73;;;9.77;;
41693;SDS011;27377;50.666;9.150;2022-12-17T12:39:02;13.85;;;8.88;;
41693;SDS011;27377;50.666;9.150;2022-12-17T12:41:55;14.13;;;9.30;;
41693;SDS011;27377;50.666;9.150;2022-12-17T12:45:04;14.77;;;9.40;;
41693;SDS011;27377;50.666;9.150;2022-12-17T12:51:25;14.98;;;9.57;;
41693;SDS011;27377;50.666;9.150;2022-12-17T12:54:22;15.88;;;9.77;;
41693;SDS011;27377;50.666;9.150;2022-12-17T12:57:56;16.47;;;10.27;;
41693;SDS011;27377;50.666;9.150;2022-12-17T13:03:36;19.10;;;11.53;;
41693;SDS011;27377;50.666;9.150;2022-12-17T13:06:41;18.73;;;11.70;;
41693;SDS011;27377;50.666;9.150;2022-12-17T13:14:25;22.70;;;13.93;;
41693;SDS011;27377;50.666;9.150;2022-12-17T13:17:00;21.13;;;13.70;;
41693;SDS011;27377;50.666;9.150;2022-12-17T13:21:55;22.47;;;14.83;;
41693;SDS011;27377;50.666;9.150;2022-12-17T13:24:34;23.92;;;14.68;;
41693;SDS011;27377;50.666;9.150;2022-12-17T13:27:00;22.23;;;14.67;;
41693;SDS011;27377;50.666;9.150;2022-12-17T13:42:31;26.77;;;16.67;;
41693;SDS011;27377;50.666;9.150;2022-12-17T13:44:59;23.45;;;15.52;;
41693;SDS011;27377;50.666;9.150;2022-12-17T13:47:30;22.98;;;15.52;;
41693;SDS011;27377;50.666;9.150;2022-12-17T13:49:58;24.17;;;16.05;;
41693;SDS011;27377;50.666;9.150;2022-12-17T13:52:26;24.58;;;16.17;;
41693;SDS011;27377;50.666;9.150;2022-12-17T13:54:53;22.85;;;15.80;;
41693;SDS011;27377;50.666;9.150;2022-12-17T13:57:30;24.10;;;15.73;;
41693;SDS011;27377;50.666;9.150;2022-12-17T13:59:56;23.08;;;15.27;;
41693;SDS011;27377;50.666;9.150;2022-12-17T14:02:33;25.40;;;16.67;;
41693;SDS011;27377;50.666;9.150;2022-12-17T14:05:04;25.42;;;17.10;;
41693;SDS011;27377;50.666;9.150;2022-12-17T14:07:32;26.48;;;17.05;;
41693;SDS011;27377;50.666;9.150;2022-12-17T14:10:02;25.15;;;16.75;;
41693;SDS011;27377;50.666;9.150;2022-12-17T14:12:29;24.77;;;16.35;;
41693;SDS011;27377;50.666;9.150;2022-12-17T14:14:59;24.80;;;16.48;;
41693;SDS011;27377;50.666;9.150;2022-12-17T14:17:39;23.77;;;16.08;;
41693;SDS011;27377;50.666;9.150;2022-12-17T14:20:12;25.97;;;17.37;;
41693;SDS011;27377;50.666;9.150;2022-12-17T14:22:42;25.08;;;16.67;;
41693;SDS011;27377;50.666;9.150;2022-12-17T14:25:15;26.35;;;17.10;;
41693;SDS011;27377;50.666;9.150;2022-12-17T14:27:51;24.27;;;16.77;;
41693;SDS011;27377;50.666;9.150;2022-12-17T14:30:41;24.07;;;16.20;;
41693;SDS011;27377;50.666;9.150;2022-12-17T14:33:27;25.92;;;16.75;;
41693;SDS011;27377;50.666;9.150;2022-12-17T14:35:54;23.97;;;16.10;;
41693;SDS011;27377;50.666;9.150;2022-12-17T14:38:21;25.52;;;17.27;;
41693;SDS011;27377;50.666;9.150;2022-12-17T14:40:48;27.45;;;17.42;;
41693;SDS011;27377;50.666;9.150;2022-12-17T14:43:13;26.70;;;17.73;;
41693;SDS011;27377;50.666;9.150;2022-12-17T14:45:47;26.33;;;17.08;;
41693;SDS011;27377;50.666;9.150;2022-12-17T14:48:34;27.35;;;17.75;;
41693;SDS011;27377;50.666;9.150;2022-12-17T14:51:19;27.20;;;17.70;;
41693;SDS011;27377;50.666;9.150;2022-12-17T14:53:47;26.50;;;17.50;;
41693;SDS011;27377;50.666;9.150;2022-12-17T14:56:20;26.10;;;16.70;;
41693;SDS011;27377;50.666;9.150;2022-12-17T14:58:47;28.15;;;17.33;;
41693;SDS011;27377;50.666;9.150;2022-12-17T15:01:13;26.70;;;16.63;;
41693;SDS011;27377;50.666;9.150;2022-12-17T15:03:40;26.83;;;17.15;;
41693;SDS011;27377;50.666;9.150;2022-12-17T15:06:07;25.38;;;16.65;;
41693;SDS011;27377;50.666;9.150;2022-12-17T15:08:37;24.38;;;15.82;;
41693;SDS011;27377;50.666;9.150;2022-12-17T15:11:12;23.92;;;16.10;;
41693;SDS011;27377;50.666;9.150;2022-12-17T15:13:42;24.58;;;15.48;;
41693;SDS011;27377;50.666;9.150;2022-12-17T15:16:08;23.60;;;15.02;;
41693;SDS011;27377;50.666;9.150;2022-12-17T15:18:34;24.75;;;15.45;;
41693;SDS011;27377;50.666;9.150;2022-12-17T15:21:00;24.55;;;15.38;;
41693;SDS011;27377;50.666;9.150;2022-12-17T15:23:26;24.38;;;15.05;;
41693;SDS011;27377;50.666;9.150;2022-12-17T15:25:53;22.92;;;15.07;;
41693;SDS011;27377;50.666;9.150;2022-12-17T15:28:19;23.80;;;14.88;;
41693;SDS011;27377;50.666;9.150;2022-12-17T15:30:45;24.27;;;14.85;;
41693;SDS011;27377;50.666;9.150;2022-12-17T15:33:12;23.70;;;15.23;;
41693;SDS011;27377;50.666;9.150;2022-12-17T15:35:38;22.45;;;14.55;;
41693;SDS011;27377;50.666;9.150;2022-12-17T15:38:04;24.83;;;15.73;;
41693;SDS011;27377;50.666;9.150;2022-12-17T15:40:30;24.98;;;15.50;;
41693;SDS011;27377;50.666;9.150;2022-12-17T15:42:57;25.03;;;15.87;;
41693;SDS011;27377;50.666;9.150;2022-12-17T15:45:35;23.95;;;15.15;;
41693;SDS011;27377;50.666;9.150;2022-12-17T15:48:15;22.80;;;14.83;;
41693;SDS011;27377;50.666;9.150;2022-12-17T15:50:42;22.60;;;14.65;;
41693;SDS011;27377;50.666;9.150;2022-12-17T15:53:07;23.55;;;14.60;;
41693;SDS011;27377;50.666;9.150;2022-12-17T15:55:34;23.35;;;15.18;;
41693;SDS011;27377;50.666;9.150;2022-12-17T15:58:00;25.83;;;15.88;;
41693;SDS011;27377;50.666;9.150;2022-12-17T16:00:26;24.10;;;15.82;;
41693;SDS011;27377;50.666;9.150;2022-12-17T16:02:54;23.27;;;15.40;;
41693;SDS011;27377;50.666;9.150;2022-12-17T16:05:20;23.95;;;15.43;;
41693;SDS011;27377;50.666;9.150;2022-12-17T16:07:46;25.20;;;16.05;;
41693;SDS011;27377;50.666;9.150;2022-12-17T16:10:12;25.77;;;16.58;;
41693;SDS011;27377;50.666;9.150;2022-12-17T16:12:39;25.33;;;16.27;;
41693;SDS011;27377;50.666;9.150;2022-12-17T16:15:05;25.40;;;15.83;;
41693;SDS011;27377;50.666;9.150;2022-12-17T16:17:32;23.95;;;15.48;;
41693;SDS011;27377;50.666;9.150;2022-12-17T16:19:58;24.77;;;16.30;;
41693;SDS011;27377;50.666;9.150;2022-12-17T16:22:24;25.30;;;15.50;;
41693;SDS011;27377;50.666;9.150;2022-12-17T16:24:51;23.35;;;15.40;;
41693;SDS011;27377;50.666;9.150;2022-12-17T16:27:17;24.40;;;15.73;;
41693;SDS011;27377;50.666;9.150;2022-12-17T16:29:43;25.15;;;15.57;;
41693;SDS011;27377;50.666;9.150;2022-12-17T16:32:10;25.83;;;15.93;;
41693;SDS011;27377;50.666;9.150;2022-12-17T16:34:36;25.00;;;15.50;;
41693;SDS011;27377;50.666;9.150;2022-12-17T16:37:01;24.90;;;15.90;;
41693;SDS011;27377;50.666;9.150;2022-12-17T16:39:27;26.17;;;16.27;;
41693;SDS011;27377;50.666;9.150;2022-12-17T16:41:53;24.67;;;15.38;;
41693;SDS011;27377;50.666;9.150;2022-12-17T16:44:18;23.37;;;14.73;;
41693;SDS011;27377;50.666;9.150;2022-12-17T16:46:44;24.17;;;15.53;;
41693;SDS011;27377;50.666;9.150;2022-12-17T16:49:13;25.15;;;15.65;;
41693;SDS011;27377;50.666;9.150;2022-12-17T16:51:42;24.38;;;14.95;;
41693;SDS011;27377;50.666;9.150;2022-12-17T16:54:10;26.13;;;16.50;;
41693;SDS011;27377;50.666;9.150;2022-12-17T16:56:39;26.13;;;16.33;;
41693;SDS011;27377;50.666;9.150;2022-12-17T16:59:05;26.10;;;15.80;;
41693;SDS011;27377;50.666;9.150;2022-12-17T17:01:32;26.33;;;15.88;;
41693;SDS011;27377;50.666;9.150;2022-12-17T17:03:58;26.08;;;15.95;;
41693;SDS011;27377;50.666;9.150;2022-12-17T17:06:27;26.63;;;15.80;;
41693;SDS011;27377;50.666;9.150;2022-12-17T17:08:52;23.20;;;14.97;;
41693;SDS011;27377;50.666;9.150;2022-12-17T17:11:19;23.83;;;15.33;;
41693;SDS011;27377;50.666;9.150;2022-12-17T17:13:50;26.25;;;15.55;;